メインページ
METAR-TAF:

METAR-TAF

空港 :

ムルマンスク, ロシア

緯度: 68-58N, 経度: 033-03E, 海抜: 51m

現時点の気象観測

当レポートは43分前の22:30(UTC)に作成
北/北東の風 2kt
気温 20°C
湿度 60%
気圧 1020 hPa
視程10km以上
1,500メートル以下は雲なし、積乱雲なし

METAR: ULMM 172230Z 03001MPS CAVOK 20/12 Q1020 R31/090070 NOSIG RMK QFE758

時間: 02:13 (23:13 UTC)

予報

当レポートは3時間23分前の19:50(UTC)に作成
予報は17日の 21時(UTC)から 18日の 21時(UTC)まで有効
の風 6kt
視程10km以上
高度4000ftの雲は散在している
17日の 21時(UTC)から 18日の 06時(UTC)まで一時的に
南/南東の風 4kt
視程: 3100m
高度200ftの雲はほとんどない
高度4000ftの雲は散在している
18日の 06時(UTC)から 18日の 21時(UTC)まで一時的に
南西の風 6kt、最大16ktの突風を伴う

TAF: ULMM 171950Z 1721/1821 18003MPS 9999 SCT040 TEMPO 1721/1806 15002MPS 3100 BR FEW002 SCT040 TEMPO 1806/1821 22003G08MPS

4,000以上の空港の気象観測と天気予報(METAR報とTAF報)

利用可能な観測所は地図上に黄色い丸と赤い丸で示す。

丸の上にカーソルを重ねると観測所名を参照できる。

次にクリックすると気象観測と天気予報を参照できる。

マップの切り替え:黒色「×」印の緑ボタンをクリックして拡大、「-」印の緑ボタンをクリックして縮小、緑色の三角印をクリックして隣りの地図に切り替え


METAR-TAF: